イヌヴィック の空港の天気 - METARとTAF

イヌヴィック空港 ( CYEV / YEV ) - カナダ ノースウエスト準州イヌヴィック
飛行場実況気象(Metar)
観測時間08/04 17:00 MDT (08/04 23:00 UTC)
風向・風速北 4m/s
視程10km以上
天気現象
全天の8割程度の雲 雲底高度 430m
気温14℃
湿度77%
気圧1009.6hPa
METARCYEV 042300Z 35008KT 15SM BKN014 14/10 A2980 RMK SC7 SLP096 DENSITY ALT 300FT
過去の天気等 Google飛行場航空写真 Wunderground天気予報

過去48時間のMETAR

飛行場予報(TAF)
発表時間: 8/04 12:38 MDT (8/04 18:38 UTC)
予報対象時間: 4日13時 MDT ~ 5日1時 MDT
風向・風速北 5m/s
視程8050m
天気現象弱い霧雨 もや
全天の8割程度の雲 雲底高度 240m
全天を覆う雲 雲底高度 460m
4日13時 MDT ~ 4日16時 MDT に一時的に
視程10km以上
天気現象運行に影響にある天気現象が終了
全天の4割程度の雲 雲底高度 240m
全天を覆う雲 雲底高度 610m
4日16時 MDT から
風向・風速北北東 5m/s
視程10km以上
全天の4割程度の雲 雲底高度 460m
全天の8割程度の雲 雲底高度 1520m
4日16時 MDT ~ 5日1時 MDT に一時的に
視程10km以上
天気現象弱いしゅう雨
全天の8割程度の雲 雲底高度 460m
全天を覆う雲 雲底高度 1520m
TAF CYEV 041838Z 0419/0507 35010KT 5SM -DZ BR BKN008 OVC015
TEMPO 0419/0422 P6SM NSW SCT008 OVC020
FM042200 02010KT P6SM SCT015 BKN050
TEMPO 0422/0507 P6SM -SHRA BKN015 OVC050 RMK NXT FCST BY 050100Z